createdAt,value
2018-10-12T00:01:56.969Z,24.40
2018-10-12T00:04:24.689Z,24.93
2018-10-12T00:06:52.056Z,24.33
2018-10-12T00:09:19.414Z,24.00
2018-10-12T00:11:46.825Z,24.50
2018-10-12T00:14:14.198Z,25.93
2018-10-12T00:16:41.607Z,23.13
2018-10-12T00:19:08.941Z,25.10
2018-10-12T00:21:36.398Z,24.43
2018-10-12T00:24:03.901Z,25.63
2018-10-12T00:26:31.249Z,24.50
2018-10-12T00:28:58.622Z,25.03
2018-10-12T00:31:25.989Z,22.70
2018-10-12T00:33:53.386Z,24.27
2018-10-12T00:36:20.750Z,24.30
2018-10-12T00:38:48.089Z,24.13
2018-10-12T00:41:15.429Z,24.50
2018-10-12T00:43:43.205Z,25.40
2018-10-12T00:46:10.648Z,24.87
2018-10-12T00:48:38.117Z,26.40
2018-10-12T00:51:05.486Z,23.63
2018-10-12T00:53:33.044Z,23.70
2018-10-12T00:56:00.385Z,24.17
2018-10-12T00:58:27.787Z,23.40
2018-10-12T01:00:55.144Z,24.63
2018-10-12T01:03:22.516Z,25.33
2018-10-12T01:05:49.925Z,30.97
2018-10-12T01:08:17.372Z,25.40
2018-10-12T01:10:44.745Z,26.60
2018-10-12T01:13:12.162Z,25.87
2018-10-12T01:15:39.568Z,27.90
2018-10-12T01:18:07.013Z,24.97
2018-10-12T01:20:34.480Z,25.33
2018-10-12T01:23:02.425Z,24.53
2018-10-12T01:25:29.830Z,25.77
2018-10-12T01:27:57.285Z,28.40
2018-10-12T01:30:24.740Z,24.30
2018-10-12T01:32:57.852Z,25.47
2018-10-12T01:35:25.329Z,25.60
2018-10-12T01:37:52.707Z,27.37
2018-10-12T01:40:20.088Z,27.87
2018-10-12T01:42:47.502Z,26.30
2018-10-12T01:45:14.909Z,24.97
2018-10-12T01:47:42.323Z,25.70
2018-10-12T01:50:10.157Z,27.43
2018-10-12T01:52:38.072Z,29.00
2018-10-12T01:55:05.567Z,27.10
2018-10-12T01:57:32.991Z,30.00
2018-10-12T02:00:00.361Z,28.30
2018-10-12T02:02:27.760Z,27.73
2018-10-12T02:04:55.196Z,28.63
2018-10-12T02:07:22.565Z,28.37
2018-10-12T02:09:50.047Z,31.60
2018-10-12T02:12:17.478Z,27.17
2018-10-12T02:14:44.849Z,30.27
2018-10-12T02:17:12.260Z,26.87
2018-10-12T02:19:39.623Z,25.97
2018-10-12T02:22:07.024Z,28.03
2018-10-12T02:24:34.444Z,28.73
2018-10-12T02:27:01.868Z,28.97
2018-10-12T02:29:29.269Z,29.40
2018-10-12T02:31:56.643Z,27.73
2018-10-12T02:34:24.073Z,27.73
2018-10-12T02:36:51.494Z,27.13
2018-10-12T02:39:18.865Z,28.20
2018-10-12T02:41:46.258Z,26.77
2018-10-12T02:44:13.650Z,28.87
2018-10-12T02:46:41.036Z,30.07
2018-10-12T02:49:08.452Z,28.27
2018-10-12T02:51:36.186Z,24.60
2018-10-12T02:54:03.658Z,27.80
2018-10-12T02:56:31.254Z,26.87
2018-10-12T02:58:58.849Z,26.93
2018-10-12T03:01:26.238Z,28.07
2018-10-12T03:03:53.605Z,32.50
2018-10-12T03:06:20.921Z,28.47
2018-10-12T03:08:48.654Z,28.67
2018-10-12T03:11:16.363Z,28.30
2018-10-12T03:13:43.809Z,28.50
2018-10-12T03:16:12.012Z,27.17
2018-10-12T03:18:39.462Z,28.40
2018-10-12T03:21:07.176Z,28.40
2018-10-12T03:23:34.580Z,23.73
2018-10-12T03:26:02.171Z,26.93
2018-10-12T03:28:32.017Z,26.17
2018-10-12T03:31:00.067Z,29.23
2018-10-12T03:33:28.105Z,28.17
2018-10-12T03:35:55.761Z,28.00
2018-10-12T03:38:23.168Z,30.50
2018-10-12T03:40:50.571Z,27.87
2018-10-12T03:43:17.956Z,29.57
2018-10-12T03:45:45.401Z,29.03
2018-10-12T03:48:12.833Z,27.67
2018-10-12T03:50:40.217Z,29.53
2018-10-12T03:53:08.991Z,28.30
2018-10-12T03:55:36.378Z,28.63
2018-10-12T03:58:03.807Z,27.97
2018-10-12T04:00:31.190Z,26.77
2018-10-12T04:02:58.522Z,31.00
2018-10-12T04:05:25.913Z,27.97
2018-10-12T04:07:53.305Z,29.07
2018-10-12T04:10:20.672Z,27.23
2018-10-12T04:12:48.041Z,25.73
2018-10-12T04:15:15.439Z,25.97
2018-10-12T04:17:42.869Z,27.43
2018-10-12T04:20:10.709Z,28.67
2018-10-12T04:22:38.147Z,28.67
2018-10-12T04:25:05.546Z,33.57
2018-10-12T04:27:32.853Z,27.43
2018-10-12T04:30:00.273Z,31.33
2018-10-12T04:32:27.594Z,28.80
2018-10-12T04:34:54.914Z,29.30
2018-10-12T04:37:22.257Z,29.33
2018-10-12T04:40:01.655Z,29.00
2018-10-12T04:42:29.020Z,27.40
2018-10-12T04:44:56.557Z,26.93
2018-10-12T04:47:26.153Z,29.63
2018-10-12T04:49:53.891Z,27.53
2018-10-12T04:52:22.274Z,26.83
2018-10-12T04:54:49.658Z,30.43
2018-10-12T04:57:17.073Z,31.60
2018-10-12T04:59:44.438Z,28.00
2018-10-12T05:02:11.941Z,29.80
2018-10-12T05:04:39.265Z,28.43
2018-10-12T05:07:06.922Z,31.27
2018-10-12T05:09:34.357Z,28.13
2018-10-12T05:12:01.747Z,27.33
2018-10-12T05:14:29.122Z,28.50
2018-10-12T05:16:56.592Z,27.20
2018-10-12T05:19:23.925Z,31.80
2018-10-12T05:21:51.287Z,29.30
2018-10-12T05:24:18.684Z,27.90
2018-10-12T05:26:46.109Z,26.20
2018-10-12T05:29:13.462Z,25.30
2018-10-12T05:31:40.850Z,28.10
2018-10-12T05:34:08.222Z,26.00
2018-10-12T05:36:35.587Z,28.77
2018-10-12T05:39:04.033Z,28.53
2018-10-12T05:41:31.467Z,27.40
2018-10-12T05:43:58.811Z,30.90
2018-10-12T05:46:26.153Z,29.13
2018-10-12T05:49:04.973Z,26.70
2018-10-12T05:51:32.402Z,31.27
2018-10-12T05:53:59.941Z,29.77
2018-10-12T05:56:29.337Z,29.40
2018-10-12T05:58:57.029Z,28.17
2018-10-12T06:01:24.532Z,27.93
2018-10-12T06:03:51.841Z,20.47
2018-10-12T06:06:19.440Z,25.20
2018-10-12T06:08:46.837Z,27.93
2018-10-12T06:11:14.242Z,31.03
2018-10-12T06:13:41.561Z,28.60
2018-10-12T06:16:08.931Z,27.17
2018-10-12T06:18:36.270Z,23.60
2018-10-12T06:21:03.662Z,26.30
2018-10-12T06:23:31.025Z,24.80
2018-10-12T06:25:58.751Z,27.40
2018-10-12T06:28:26.081Z,25.00
2018-10-12T06:30:53.433Z,24.60
2018-10-12T06:33:20.790Z,27.73
2018-10-12T06:35:48.113Z,22.20
2018-10-12T06:38:15.497Z,23.23
2018-10-12T06:40:42.885Z,21.93
2018-10-12T06:43:10.221Z,28.70
2018-10-12T06:45:37.597Z,26.90
2018-10-12T06:48:05.171Z,24.70
2018-10-12T06:50:32.548Z,21.90
2018-10-12T06:53:00.393Z,23.10
2018-10-12T06:55:27.712Z,24.13
2018-10-12T06:57:55.056Z,21.13
2018-10-12T07:00:22.483Z,21.33
2018-10-12T07:02:49.933Z,20.27
2018-10-12T07:05:17.722Z,23.60
2018-10-12T07:07:45.206Z,25.07
2018-10-12T07:10:12.649Z,23.03
2018-10-12T07:12:40.025Z,24.40
2018-10-12T07:15:08.558Z,18.40
2018-10-12T07:17:35.888Z,22.37
2018-10-12T07:20:03.605Z,21.50
2018-10-12T07:22:31.001Z,22.17
2018-10-12T07:24:58.317Z,23.90
2018-10-12T07:27:25.666Z,22.27
2018-10-12T07:29:53.030Z,21.73
2018-10-12T07:32:20.613Z,21.03
2018-10-12T07:34:47.994Z,22.00
2018-10-12T07:37:15.378Z,20.97
2018-10-12T07:39:42.744Z,22.67
2018-10-12T07:42:10.103Z,21.23
2018-10-12T07:44:37.429Z,21.33
2018-10-12T07:47:04.911Z,21.10
2018-10-12T07:49:32.315Z,19.53
2018-10-12T07:51:59.721Z,21.30
2018-10-12T07:54:27.095Z,20.27
2018-10-12T07:56:54.479Z,23.17
2018-10-12T07:59:21.806Z,21.13
2018-10-12T08:01:49.214Z,21.50
2018-10-12T08:04:16.961Z,18.73
2018-10-12T08:06:44.631Z,20.50
2018-10-12T08:09:11.933Z,17.20
2018-10-12T08:11:39.325Z,18.73
2018-10-12T08:14:06.739Z,18.30
2018-10-12T08:16:34.264Z,18.10
2018-10-12T08:19:01.669Z,17.13
2018-10-12T08:21:30.060Z,16.70
2018-10-12T08:23:57.777Z,17.33
2018-10-12T08:26:25.174Z,17.47
2018-10-12T08:28:56.313Z,17.03
2018-10-12T08:31:23.668Z,16.70
2018-10-12T08:33:51.128Z,16.10
2018-10-12T08:36:18.507Z,15.43
2018-10-12T08:38:45.835Z,16.63
2018-10-12T08:41:13.627Z,14.63
2018-10-12T08:43:41.077Z,13.90
2018-10-12T08:46:08.489Z,12.80
2018-10-12T08:48:35.809Z,12.80
2018-10-12T08:51:03.217Z,13.53
2018-10-12T08:53:30.676Z,11.13
2018-10-12T08:55:58.092Z,11.43
2018-10-12T08:58:25.453Z,11.87
2018-10-12T09:00:52.869Z,11.50
2018-10-12T09:03:20.227Z,11.47
2018-10-12T09:05:47.582Z,10.67
2018-10-12T09:08:15.021Z,10.60
2018-10-12T09:10:42.396Z,10.97
2018-10-12T09:13:10.380Z,10.00
2018-10-12T09:15:37.788Z,12.43
2018-10-12T09:18:05.214Z,10.77
2018-10-12T09:20:32.648Z,11.73
2018-10-12T09:22:59.926Z,11.50
2018-10-12T09:25:27.259Z,10.47
2018-10-12T09:27:54.671Z,11.10
2018-10-12T09:30:22.288Z,9.33
2018-10-12T09:32:49.613Z,11.20
2018-10-12T09:35:17.116Z,10.23
2018-10-12T09:37:44.553Z,10.70
2018-10-12T09:40:11.897Z,11.10
2018-10-12T09:42:39.218Z,10.70
2018-10-12T09:45:06.599Z,10.63
2018-10-12T09:47:33.988Z,10.97
2018-10-12T09:50:01.765Z,11.43
2018-10-12T09:52:29.114Z,9.63
2018-10-12T09:54:56.563Z,14.63
2018-10-12T09:57:24.608Z,9.70
2018-10-12T09:59:52.008Z,10.70
2018-10-12T10:02:27.061Z,12.13
2018-10-12T10:04:58.994Z,9.20
2018-10-12T10:07:26.422Z,9.67
2018-10-12T10:09:53.890Z,9.63
2018-10-12T10:12:21.217Z,8.90
2018-10-12T10:14:48.574Z,8.27
2018-10-12T10:17:15.941Z,8.90
2018-10-12T10:19:43.352Z,8.43
2018-10-12T10:22:10.756Z,11.60
2018-10-12T10:24:38.145Z,9.50
2018-10-12T10:27:06.221Z,8.30
2018-10-12T10:29:33.647Z,9.80
2018-10-12T10:32:01.176Z,8.20
2018-10-12T10:34:28.520Z,7.43
2018-10-12T10:36:55.920Z,8.17
2018-10-12T10:39:23.744Z,8.13
2018-10-12T10:41:51.163Z,8.20
2018-10-12T10:44:18.760Z,8.40
2018-10-12T10:46:46.191Z,8.50
2018-10-12T10:49:13.622Z,7.93
2018-10-12T10:51:40.992Z,8.40
2018-10-12T10:54:08.617Z,7.70
2018-10-12T10:56:35.970Z,8.00
2018-10-12T10:59:03.405Z,8.70
2018-10-12T11:01:31.350Z,7.37
2018-10-12T11:03:58.717Z,6.23
2018-10-12T11:06:26.320Z,7.10
2018-10-12T11:08:53.698Z,6.17
2018-10-12T11:11:21.031Z,6.57
2018-10-12T11:13:48.587Z,6.43
2018-10-12T11:16:15.973Z,6.53
2018-10-12T11:18:43.409Z,6.30
2018-10-12T11:21:12.001Z,5.67
2018-10-12T11:23:39.550Z,6.60
2018-10-12T11:26:07.009Z,6.20
2018-10-12T11:28:34.588Z,5.67
2018-10-12T11:31:02.272Z,6.80
2018-10-12T11:33:29.789Z,6.60
2018-10-12T11:35:57.303Z,5.80
2018-10-12T11:38:24.716Z,6.20
2018-10-12T11:40:52.088Z,5.33
2018-10-12T11:43:25.987Z,5.10
2018-10-12T11:45:53.377Z,6.03
2018-10-12T11:48:20.875Z,5.70
2018-10-12T11:50:48.317Z,5.00
2018-10-12T11:53:15.829Z,5.73
2018-10-12T11:55:45.523Z,5.57
2018-10-12T11:58:12.993Z,4.70
2018-10-12T12:00:40.575Z,4.00
2018-10-12T12:03:07.958Z,3.93
2018-10-12T12:05:35.393Z,3.77
2018-10-12T12:08:02.869Z,3.80
2018-10-12T12:10:30.260Z,3.93
2018-10-12T12:12:57.788Z,3.83
2018-10-12T12:15:25.141Z,5.43
2018-10-12T12:17:52.519Z,6.07
2018-10-12T12:20:19.889Z,3.33
2018-10-12T12:22:47.390Z,3.50
2018-10-12T12:25:14.845Z,3.40
2018-10-12T12:27:42.268Z,3.87
2018-10-12T12:30:10.110Z,4.27
2018-10-12T12:32:37.469Z,4.30
2018-10-12T12:35:04.957Z,3.70
2018-10-12T12:37:32.293Z,3.70
2018-10-12T12:39:59.794Z,3.80
2018-10-12T12:42:27.204Z,4.40
2018-10-12T12:44:54.538Z,3.67
2018-10-12T12:47:22.072Z,3.50
2018-10-12T12:49:49.647Z,4.27
2018-10-12T12:52:17.089Z,4.27
2018-10-12T12:54:44.468Z,3.60
2018-10-12T12:57:11.897Z,6.87
2018-10-12T12:59:39.266Z,5.87
2018-10-12T13:02:06.685Z,5.37
2018-10-12T13:04:34.177Z,4.47
2018-10-12T13:07:01.581Z,3.73
2018-10-12T13:09:28.945Z,4.30
2018-10-12T13:11:56.319Z,4.10
2018-10-12T13:14:23.797Z,5.23
2018-10-12T13:16:51.161Z,5.87
2018-10-12T13:19:18.639Z,4.10
2018-10-12T13:21:46.049Z,4.83
2018-10-12T13:24:13.452Z,4.10
2018-10-12T13:26:40.889Z,4.60
2018-10-12T13:29:08.253Z,5.27
2018-10-12T13:31:35.648Z,3.67
2018-10-12T13:34:03.223Z,3.90
2018-10-12T13:36:30.597Z,5.30
2018-10-12T13:38:57.942Z,4.37
2018-10-12T13:41:25.366Z,6.40
2018-10-12T13:43:52.793Z,5.17
2018-10-12T13:46:20.363Z,5.43
2018-10-12T13:48:47.756Z,4.30
2018-10-12T13:51:15.149Z,3.93
2018-10-12T13:53:42.521Z,4.47
2018-10-12T13:56:09.909Z,4.30
2018-10-12T13:58:37.289Z,8.93
2018-10-12T14:01:04.754Z,6.40
2018-10-12T14:03:32.107Z,6.23
2018-10-12T14:05:59.575Z,4.37
2018-10-12T14:08:26.982Z,7.53
2018-10-12T14:10:54.384Z,7.60
2018-10-12T14:13:21.726Z,5.37
2018-10-12T14:15:49.081Z,5.27
2018-10-12T14:18:16.576Z,5.50
2018-10-12T14:20:56.409Z,4.87
2018-10-12T14:23:23.740Z,4.33
2018-10-12T14:25:51.110Z,4.67
2018-10-12T14:28:18.498Z,4.40
2018-10-12T14:30:45.897Z,4.03
2018-10-12T14:33:13.253Z,5.60
2018-10-12T14:35:40.598Z,3.90
2018-10-12T14:38:07.955Z,5.80
2018-10-12T14:40:35.321Z,3.90
2018-10-12T14:43:03.893Z,5.93
2018-10-12T14:45:31.383Z,3.70
2018-10-12T14:47:58.749Z,4.63
2018-10-12T14:50:29.740Z,3.97
2018-10-12T14:52:57.207Z,5.40
2018-10-12T14:55:24.698Z,5.30
2018-10-12T14:57:52.033Z,4.27
2018-10-12T15:00:19.519Z,4.00
2018-10-12T15:02:46.857Z,9.90
2018-10-12T15:05:14.249Z,4.27
2018-10-12T15:07:41.622Z,3.30
2018-10-12T15:10:09.004Z,3.80
2018-10-12T15:12:36.354Z,3.47
2018-10-12T15:15:12.675Z,5.87
2018-10-12T15:17:40.123Z,4.23
2018-10-12T15:20:07.561Z,3.90
2018-10-12T15:22:34.888Z,4.27
2018-10-12T15:25:03.218Z,4.77
2018-10-12T15:27:30.572Z,4.00
2018-10-12T15:29:57.897Z,4.40
2018-10-12T15:32:25.302Z,4.43
2018-10-12T15:34:52.705Z,3.90
2018-10-12T15:37:20.137Z,5.00
2018-10-12T15:39:47.433Z,4.63
2018-10-12T15:42:14.828Z,6.00
2018-10-12T15:44:42.178Z,5.20
2018-10-12T15:47:09.537Z,6.10
2018-10-12T15:49:36.920Z,3.83
2018-10-12T15:52:04.376Z,4.00
2018-10-12T15:54:31.809Z,5.10
2018-10-12T15:56:59.340Z,4.67
2018-10-12T15:59:26.745Z,6.23
2018-10-12T16:01:54.240Z,4.90
2018-10-12T16:04:21.712Z,5.53
2018-10-12T16:06:49.041Z,4.23
2018-10-12T16:09:16.436Z,7.03
2018-10-12T16:11:43.836Z,5.83
2018-10-12T16:14:11.434Z,5.23
2018-10-12T16:16:38.791Z,5.40
2018-10-12T16:19:06.477Z,5.97
2018-10-12T16:21:33.850Z,6.73
2018-10-12T16:24:09.040Z,8.50
2018-10-12T16:26:36.435Z,5.67
2018-10-12T16:29:03.932Z,7.10
2018-10-12T16:31:31.237Z,5.33
2018-10-12T16:33:58.562Z,4.33
2018-10-12T16:36:25.975Z,5.77
2018-10-12T16:38:53.509Z,6.50
2018-10-12T16:41:20.892Z,6.17
2018-10-12T16:43:48.273Z,9.20
2018-10-12T16:46:15.650Z,7.07
2018-10-12T16:48:43.082Z,12.70
2018-10-12T16:51:10.406Z,10.50
2018-10-12T16:53:37.946Z,7.30
2018-10-12T16:56:05.473Z,5.77
2018-10-12T16:58:32.812Z,9.60
2018-10-12T17:01:00.169Z,15.93
2018-10-12T17:03:27.514Z,11.10
2018-10-12T17:05:54.955Z,11.00
2018-10-12T17:08:22.329Z,19.93
2018-10-12T17:10:49.709Z,22.93
2018-10-12T17:13:17.231Z,13.80
2018-10-12T17:15:44.641Z,9.50
2018-10-12T17:18:12.043Z,14.53
2018-10-12T17:20:39.398Z,9.77
2018-10-12T17:23:07.042Z,7.43
2018-10-12T17:25:34.389Z,7.63
2018-10-12T17:28:01.798Z,6.83
2018-10-12T17:30:29.205Z,7.70
2018-10-12T17:32:56.554Z,6.83
2018-10-12T17:35:23.937Z,7.70
2018-10-12T17:37:51.358Z,7.13
2018-10-12T17:40:18.722Z,6.20
2018-10-12T17:42:46.076Z,7.13
2018-10-12T17:45:13.985Z,6.90
2018-10-12T17:47:41.418Z,5.50
2018-10-12T17:50:08.993Z,7.27
2018-10-12T17:52:36.375Z,7.13
2018-10-12T17:55:03.903Z,6.70
2018-10-12T17:57:32.146Z,9.10
2018-10-12T18:00:00.655Z,8.03
2018-10-12T18:02:28.031Z,8.57
2018-10-12T18:04:55.428Z,6.67
2018-10-12T18:07:22.806Z,6.97
2018-10-12T18:09:50.179Z,6.90
2018-10-12T18:12:17.529Z,7.53
2018-10-12T18:14:44.946Z,6.77
2018-10-12T18:17:12.890Z,6.73
2018-10-12T18:19:40.412Z,8.87
2018-10-12T18:22:08.182Z,6.13
2018-10-12T18:24:35.599Z,6.43
2018-10-12T18:27:03.374Z,6.90
2018-10-12T18:29:30.722Z,7.23
2018-10-12T18:31:58.114Z,6.77
2018-10-12T18:34:25.535Z,6.87
2018-10-12T18:36:52.955Z,8.70
2018-10-12T18:39:20.321Z,6.57
2018-10-12T18:41:47.711Z,6.93
2018-10-12T18:44:15.115Z,7.67
2018-10-12T18:46:42.513Z,6.07
2018-10-12T18:49:09.844Z,6.10
2018-10-12T18:51:37.217Z,7.80
2018-10-12T18:54:04.703Z,6.53
2018-10-12T18:56:32.118Z,8.13
2018-10-12T18:58:59.478Z,6.13
2018-10-12T19:01:26.818Z,7.90
2018-10-12T19:03:54.194Z,6.57
2018-10-12T19:06:21.560Z,9.00
2018-10-12T19:08:48.900Z,6.90
2018-10-12T19:11:16.310Z,7.23
2018-10-12T19:13:43.797Z,7.03
2018-10-12T19:16:11.204Z,7.50
2018-10-12T19:18:38.601Z,7.70
2018-10-12T19:21:06.094Z,8.27
2018-10-12T19:23:35.285Z,7.80
2018-10-12T19:26:03.844Z,9.10
2018-10-12T19:28:31.857Z,8.37
2018-10-12T19:30:59.365Z,9.70
2018-10-12T19:33:26.714Z,10.87
2018-10-12T19:35:54.161Z,7.73
2018-10-12T19:38:21.712Z,8.60
2018-10-12T19:40:49.037Z,7.73
2018-10-12T19:43:16.442Z,7.00
2018-10-12T19:45:43.800Z,8.40
2018-10-12T19:48:11.409Z,7.07
2018-10-12T19:50:38.817Z,8.57
2018-10-12T19:53:06.377Z,8.50
2018-10-12T19:55:33.798Z,9.00
2018-10-12T19:58:01.195Z,8.37
2018-10-12T20:00:28.528Z,6.90
2018-10-12T20:02:55.883Z,7.37
2018-10-12T20:05:23.305Z,9.73
2018-10-12T20:07:50.747Z,8.10
2018-10-12T20:10:18.175Z,9.07
2018-10-12T20:12:45.469Z,8.20
2018-10-12T20:15:13.266Z,8.30
2018-10-12T20:17:40.657Z,7.40
2018-10-12T20:20:08.042Z,7.07
2018-10-12T20:22:35.455Z,6.10
2018-10-12T20:25:02.906Z,8.70
2018-10-12T20:27:30.263Z,8.63
2018-10-12T20:29:57.613Z,7.43
2018-10-12T20:32:25.010Z,8.00
2018-10-12T20:34:52.354Z,8.73
2018-10-12T20:37:19.746Z,7.07
2018-10-12T20:39:47.135Z,8.13
2018-10-12T20:42:14.485Z,8.13
2018-10-12T20:44:41.854Z,13.03
2018-10-12T20:47:09.303Z,9.63
2018-10-12T20:49:36.654Z,11.33
2018-10-12T20:52:04.081Z,13.10
2018-10-12T20:54:31.438Z,9.23
2018-10-12T20:56:58.800Z,8.77
2018-10-12T20:59:26.205Z,8.30
2018-10-12T21:01:53.975Z,8.57
2018-10-12T21:04:21.354Z,7.70
2018-10-12T21:06:48.779Z,8.50
2018-10-12T21:09:16.113Z,7.90
2018-10-12T21:11:43.471Z,7.17
2018-10-12T21:14:10.997Z,8.17
2018-10-12T21:16:38.383Z,8.57
2018-10-12T21:19:05.737Z,9.97
2018-10-12T21:21:33.095Z,7.40
2018-10-12T21:24:00.501Z,7.97
2018-10-12T21:26:27.855Z,7.37
2018-10-12T21:28:55.181Z,10.07
2018-10-12T21:31:22.582Z,9.00
2018-10-12T21:33:49.891Z,8.43
2018-10-12T21:36:17.470Z,8.77
2018-10-12T21:38:44.801Z,8.33
2018-10-12T21:41:12.249Z,8.87
2018-10-12T21:43:39.593Z,7.30
2018-10-12T21:46:06.969Z,8.60
2018-10-12T21:48:34.334Z,8.23
2018-10-12T21:51:01.763Z,8.50
2018-10-12T21:53:29.144Z,8.57
2018-10-12T21:55:56.505Z,10.17
2018-10-12T21:58:23.883Z,10.17
2018-10-12T22:00:56.897Z,10.70
2018-10-12T22:03:24.269Z,8.43
2018-10-12T22:05:52.481Z,8.23
2018-10-12T22:08:25.380Z,8.27
2018-10-12T22:10:52.861Z,9.13
2018-10-12T22:13:20.214Z,8.63
2018-10-12T22:15:47.574Z,9.23
2018-10-12T22:18:15.089Z,8.50
2018-10-12T22:20:42.478Z,8.97
2018-10-12T22:23:09.880Z,8.13
2018-10-12T22:25:37.260Z,10.13
2018-10-12T22:28:04.898Z,9.83
2018-10-12T22:30:32.357Z,10.93
2018-10-12T22:32:59.753Z,8.90
2018-10-12T22:35:27.119Z,9.47
2018-10-12T22:37:54.509Z,9.10
2018-10-12T22:40:21.887Z,9.07
2018-10-12T22:42:49.357Z,9.07
2018-10-12T22:45:16.653Z,9.57
2018-10-12T22:47:44.064Z,8.57
2018-10-12T22:50:11.417Z,10.57
2018-10-12T22:52:38.759Z,9.97
2018-10-12T22:55:06.135Z,7.83
2018-10-12T22:57:33.469Z,8.00
2018-10-12T23:00:01.030Z,8.17
2018-10-12T23:02:28.388Z,8.10
2018-10-12T23:04:55.761Z,8.13
2018-10-12T23:07:23.085Z,8.17
2018-10-12T23:09:50.419Z,8.27
2018-10-12T23:12:17.823Z,8.90
2018-10-12T23:14:45.171Z,8.73
2018-10-12T23:17:12.553Z,8.30
2018-10-12T23:19:39.970Z,9.83
2018-10-12T23:22:07.405Z,11.20
2018-10-12T23:24:34.994Z,9.40
2018-10-12T23:27:02.705Z,9.27
2018-10-12T23:29:30.169Z,9.30
2018-10-12T23:31:57.518Z,10.40
2018-10-12T23:34:31.510Z,11.93
2018-10-12T23:36:58.934Z,10.90
2018-10-12T23:39:26.281Z,12.57
2018-10-12T23:41:53.625Z,8.70
2018-10-12T23:44:21.002Z,8.00
2018-10-12T23:46:48.388Z,9.50
2018-10-12T23:49:15.977Z,8.70
2018-10-12T23:51:43.341Z,14.50
2018-10-12T23:54:10.732Z,10.70
2018-10-12T23:56:38.149Z,8.77
2018-10-12T23:59:05.582Z,9.03
